sensor_id;sensor_type;location;lat;lon;timestamp;pressure;altitude;pressure_sealevel;temperature;humidity
46690;BME280;32423;45.398;10.874;2022-08-19T00:00:53;100078.06;;;23.35;73.43
46690;BME280;32423;45.398;10.874;2022-08-19T00:03:38;100089.81;;;23.16;74.06
46690;BME280;32423;45.398;10.874;2022-08-19T00:06:24;100102.28;;;23.00;75.88
46690;BME280;32423;45.398;10.874;2022-08-19T00:09:12;100093.41;;;23.13;74.88
46690;BME280;32423;45.398;10.874;2022-08-19T00:11:59;100061.97;;;23.23;74.86
46690;BME280;32423;45.398;10.874;2022-08-19T00:14:43;100010.25;;;23.36;73.38
46690;BME280;32423;45.398;10.874;2022-08-19T00:17:29;99958.16;;;23.47;73.16
46690;BME280;32423;45.398;10.874;2022-08-19T00:20:18;99930.69;;;23.56;72.29
46690;BME280;32423;45.398;10.874;2022-08-19T00:23:03;99931.56;;;23.73;71.57
46690;BME280;32423;45.398;10.874;2022-08-19T00:25:48;99946.75;;;23.88;70.95
46690;BME280;32423;45.398;10.874;2022-08-19T00:28:33;99956.84;;;24.02;70.55
46690;BME280;32423;45.398;10.874;2022-08-19T00:31:20;99957.69;;;23.99;70.53
46690;BME280;32423;45.398;10.874;2022-08-19T00:34:05;99976.00;;;23.96;70.30
46690;BME280;32423;45.398;10.874;2022-08-19T00:36:50;100022.94;;;22.76;75.16
46690;BME280;32423;45.398;10.874;2022-08-19T00:39:35;100057.91;;;21.74;81.92
46690;BME280;32423;45.398;10.874;2022-08-19T00:42:21;100052.59;;;21.39;84.14
46690;BME280;32423;45.398;10.874;2022-08-19T00:45:14;100044.72;;;21.37;83.75
46690;BME280;32423;45.398;10.874;2022-08-19T00:48:02;100037.56;;;21.47;82.36
46690;BME280;32423;45.398;10.874;2022-08-19T00:50:52;100048.22;;;21.48;83.01
46690;BME280;32423;45.398;10.874;2022-08-19T00:53:38;100079.13;;;21.32;81.98
46690;BME280;32423;45.398;10.874;2022-08-19T00:56:24;100081.84;;;21.40;81.73
46690;BME280;32423;45.398;10.874;2022-08-19T00:59:11;100093.31;;;21.42;83.52
46690;BME280;32423;45.398;10.874;2022-08-19T01:01:57;100108.88;;;20.97;87.33
46690;BME280;32423;45.398;10.874;2022-08-19T01:04:42;100126.69;;;20.78;88.37
46690;BME280;32423;45.398;10.874;2022-08-19T01:07:27;100143.25;;;20.85;86.61
46690;BME280;32423;45.398;10.874;2022-08-19T01:10:16;100130.22;;;20.96;85.90
46690;BME280;32423;45.398;10.874;2022-08-19T01:13:04;100134.16;;;21.02;84.74
46690;BME280;32423;45.398;10.874;2022-08-19T01:15:52;100140.81;;;21.08;84.47
46690;BME280;32423;45.398;10.874;2022-08-19T01:18:40;100126.63;;;21.03;86.19
46690;BME280;32423;45.398;10.874;2022-08-19T01:21:31;100111.19;;;21.19;84.37
46690;BME280;32423;45.398;10.874;2022-08-19T01:24:18;100106.47;;;21.16;83.72
46690;BME280;32423;45.398;10.874;2022-08-19T01:27:05;100115.59;;;21.03;84.20
46690;BME280;32423;45.398;10.874;2022-08-19T01:29:51;100135.72;;;21.00;84.58
46690;BME280;32423;45.398;10.874;2022-08-19T01:32:36;100143.25;;;20.96;85.54
46690;BME280;32423;45.398;10.874;2022-08-19T01:35:25;100141.28;;;20.89;86.24
46690;BME280;32423;45.398;10.874;2022-08-19T01:38:20;100123.44;;;21.22;84.62
46690;BME280;32423;45.398;10.874;2022-08-19T01:41:05;100113.56;;;21.21;84.56
46690;BME280;32423;45.398;10.874;2022-08-19T01:43:51;100117.13;;;21.21;84.83
46690;BME280;32423;45.398;10.874;2022-08-19T01:46:36;100120.69;;;21.04;85.98
46690;BME280;32423;45.398;10.874;2022-08-19T01:49:23;100131.72;;;21.11;85.93
46690;BME280;32423;45.398;10.874;2022-08-19T01:52:09;100134.50;;;21.04;86.45
46690;BME280;32423;45.398;10.874;2022-08-19T01:54:54;100128.22;;;20.93;87.57
46690;BME280;32423;45.398;10.874;2022-08-19T01:57:41;100112.84;;;20.92;87.49
46690;BME280;32423;45.398;10.874;2022-08-19T02:00:30;100105.69;;;21.16;86.15
46690;BME280;32423;45.398;10.874;2022-08-19T02:03:15;100080.41;;;21.17;85.46
46690;BME280;32423;45.398;10.874;2022-08-19T02:06:01;100064.56;;;21.21;85.68
46690;BME280;32423;45.398;10.874;2022-08-19T02:08:46;100054.66;;;21.27;85.09
46690;BME280;32423;45.398;10.874;2022-08-19T02:11:34;100053.31;;;21.53;83.66
46690;BME280;32423;45.398;10.874;2022-08-19T02:14:20;100052.63;;;21.90;81.90
46690;BME280;32423;45.398;10.874;2022-08-19T02:17:04;100055.50;;;22.28;79.97
46690;BME280;32423;45.398;10.874;2022-08-19T02:19:49;100057.69;;;22.47;78.79
46690;BME280;32423;45.398;10.874;2022-08-19T02:22:34;100058.63;;;22.71;77.94
46690;BME280;32423;45.398;10.874;2022-08-19T02:25:20;100033.94;;;22.83;76.62
46690;BME280;32423;45.398;10.874;2022-08-19T02:28:05;100037.91;;;22.82;75.83
46690;BME280;32423;45.398;10.874;2022-08-19T02:30:50;100035.09;;;22.86;75.82
46690;BME280;32423;45.398;10.874;2022-08-19T02:33:35;100036.22;;;22.92;75.38
46690;BME280;32423;45.398;10.874;2022-08-19T02:36:20;100040.88;;;22.98;75.00
46690;BME280;32423;45.398;10.874;2022-08-19T02:39:05;100040.03;;;23.05;74.98
46690;BME280;32423;45.398;10.874;2022-08-19T02:41:50;100066.03;;;23.15;74.36
46690;BME280;32423;45.398;10.874;2022-08-19T02:44:36;100080.56;;;22.92;74.94
46690;BME280;32423;45.398;10.874;2022-08-19T02:47:21;100070.66;;;22.94;74.85
46690;BME280;32423;45.398;10.874;2022-08-19T02:50:07;100073.56;;;22.84;75.34
46690;BME280;32423;45.398;10.874;2022-08-19T02:52:52;100067.28;;;22.76;75.72
46690;BME280;32423;45.398;10.874;2022-08-19T02:55:43;100056.34;;;22.62;76.29
46690;BME280;32423;45.398;10.874;2022-08-19T02:58:28;100054.47;;;22.52;76.87
46690;BME280;32423;45.398;10.874;2022-08-19T03:01:28;100049.53;;;22.33;77.10
46690;BME280;32423;45.398;10.874;2022-08-19T03:04:15;100056.22;;;22.35;77.57
46690;BME280;32423;45.398;10.874;2022-08-19T03:07:00;100061.19;;;22.51;77.28
46690;BME280;32423;45.398;10.874;2022-08-19T03:09:45;100061.47;;;22.64;76.50
46690;BME280;32423;45.398;10.874;2022-08-19T03:12:30;100068.06;;;22.80;75.74
46690;BME280;32423;45.398;10.874;2022-08-19T03:15:15;100078.97;;;22.94;75.05
46690;BME280;32423;45.398;10.874;2022-08-19T03:18:00;100080.50;;;22.99;73.85
46690;BME280;32423;45.398;10.874;2022-08-19T03:20:48;100079.63;;;22.68;74.23
46690;BME280;32423;45.398;10.874;2022-08-19T03:23:34;100080.09;;;22.63;74.45
46690;BME280;32423;45.398;10.874;2022-08-19T03:26:18;100075.75;;;22.62;75.30
46690;BME280;32423;45.398;10.874;2022-08-19T03:29:04;100083.56;;;22.74;74.91
46690;BME280;32423;45.398;10.874;2022-08-19T03:31:50;100085.88;;;22.79;74.81
46690;BME280;32423;45.398;10.874;2022-08-19T03:34:37;100080.63;;;22.88;74.41
46690;BME280;32423;45.398;10.874;2022-08-19T03:37:22;100077.31;;;23.00;73.89
46690;BME280;32423;45.398;10.874;2022-08-19T03:40:07;100082.72;;;23.11;72.96
46690;BME280;32423;45.398;10.874;2022-08-19T03:42:52;100094.53;;;23.19;72.70
46690;BME280;32423;45.398;10.874;2022-08-19T03:45:37;100103.69;;;23.16;71.59
46690;BME280;32423;45.398;10.874;2022-08-19T03:48:22;100121.41;;;23.22;72.01
46690;BME280;32423;45.398;10.874;2022-08-19T03:51:07;100133.75;;;23.21;72.34
46690;BME280;32423;45.398;10.874;2022-08-19T03:54:02;100146.03;;;23.20;72.37
46690;BME280;32423;45.398;10.874;2022-08-19T03:56:49;100163.75;;;23.29;72.31
46690;BME280;32423;45.398;10.874;2022-08-19T03:59:38;100167.22;;;23.37;71.90
46690;BME280;32423;45.398;10.874;2022-08-19T04:02:22;100169.91;;;23.44;71.06
46690;BME280;32423;45.398;10.874;2022-08-19T04:05:08;100192.41;;;23.53;70.97
46690;BME280;32423;45.398;10.874;2022-08-19T04:07:52;100191.16;;;23.58;70.40
46690;BME280;32423;45.398;10.874;2022-08-19T04:10:38;100189.56;;;23.60;70.30
46690;BME280;32423;45.398;10.874;2022-08-19T04:13:25;100193.88;;;23.65;69.99
46690;BME280;32423;45.398;10.874;2022-08-19T04:16:10;100198.44;;;23.78;69.59
46690;BME280;32423;45.398;10.874;2022-08-19T04:18:59;100209.88;;;23.84;69.06
46690;BME280;32423;45.398;10.874;2022-08-19T04:21:48;100229.31;;;23.84;68.72
46690;BME280;32423;45.398;10.874;2022-08-19T04:24:34;100248.19;;;23.66;69.84
46690;BME280;32423;45.398;10.874;2022-08-19T04:27:19;100258.84;;;23.71;69.56
46690;BME280;32423;45.398;10.874;2022-08-19T04:30:04;100265.88;;;23.45;70.44
46690;BME280;32423;45.398;10.874;2022-08-19T04:32:49;100275.69;;;23.57;70.25
46690;BME280;32423;45.398;10.874;2022-08-19T04:35:38;100279.44;;;23.73;69.64
46690;BME280;32423;45.398;10.874;2022-08-19T04:38:23;100277.09;;;23.68;71.72
46690;BME280;32423;45.398;10.874;2022-08-19T04:41:08;100268.56;;;23.15;77.19
46690;BME280;32423;45.398;10.874;2022-08-19T04:44:12;100263.78;;;22.71;80.76
46690;BME280;32423;45.398;10.874;2022-08-19T04:46:57;100253.44;;;22.78;77.05
46690;BME280;32423;45.398;10.874;2022-08-19T04:49:42;100245.38;;;22.94;75.48
46690;BME280;32423;45.398;10.874;2022-08-19T04:52:27;100234.06;;;23.16;74.24
46690;BME280;32423;45.398;10.874;2022-08-19T04:55:12;100223.94;;;23.36;72.98
46690;BME280;32423;45.398;10.874;2022-08-19T04:57:58;100212.00;;;23.39;72.83
46690;BME280;32423;45.398;10.874;2022-08-19T05:00:44;100199.31;;;23.41;72.42
46690;BME280;32423;45.398;10.874;2022-08-19T05:03:29;100190.13;;;23.44;72.49
46690;BME280;32423;45.398;10.874;2022-08-19T05:06:20;100181.88;;;23.37;72.71
46690;BME280;32423;45.398;10.874;2022-08-19T05:09:05;100171.16;;;23.06;74.68
46690;BME280;32423;45.398;10.874;2022-08-19T05:11:50;100162.34;;;22.77;76.01
46690;BME280;32423;45.398;10.874;2022-08-19T05:14:37;100161.56;;;22.76;76.29
46690;BME280;32423;45.398;10.874;2022-08-19T05:17:22;100166.81;;;23.05;74.80
46690;BME280;32423;45.398;10.874;2022-08-19T05:20:07;100162.22;;;23.25;73.85
46690;BME280;32423;45.398;10.874;2022-08-19T05:23:11;100158.78;;;23.48;72.72
46690;BME280;32423;45.398;10.874;2022-08-19T05:26:00;100160.28;;;23.56;71.76
46690;BME280;32423;45.398;10.874;2022-08-19T05:28:44;100159.56;;;23.48;72.30
46690;BME280;32423;45.398;10.874;2022-08-19T05:31:29;100170.31;;;23.42;71.79
46690;BME280;32423;45.398;10.874;2022-08-19T05:34:15;100163.28;;;23.34;72.01
46690;BME280;32423;45.398;10.874;2022-08-19T05:37:02;100175.72;;;23.23;72.81
46690;BME280;32423;45.398;10.874;2022-08-19T05:39:48;100170.25;;;23.16;73.27
46690;BME280;32423;45.398;10.874;2022-08-19T05:42:33;100174.69;;;23.06;73.58
46690;BME280;32423;45.398;10.874;2022-08-19T05:45:18;100180.28;;;23.02;74.12
46690;BME280;32423;45.398;10.874;2022-08-19T05:48:03;100180.34;;;22.99;74.42
46690;BME280;32423;45.398;10.874;2022-08-19T05:50:48;100188.63;;;23.02;74.60
46690;BME280;32423;45.398;10.874;2022-08-19T05:53:34;100199.25;;;23.08;74.76
46690;BME280;32423;45.398;10.874;2022-08-19T05:56:19;100189.81;;;23.01;74.76
46690;BME280;32423;45.398;10.874;2022-08-19T05:59:06;100175.94;;;23.01;74.64
46690;BME280;32423;45.398;10.874;2022-08-19T06:01:54;100179.56;;;22.98;75.28
46690;BME280;32423;45.398;10.874;2022-08-19T06:04:40;100172.78;;;23.03;75.49
46690;BME280;32423;45.398;10.874;2022-08-19T06:07:27;100173.44;;;23.14;75.07
46690;BME280;32423;45.398;10.874;2022-08-19T06:10:13;100174.56;;;23.20;75.34
46690;BME280;32423;45.398;10.874;2022-08-19T06:12:57;100165.81;;;23.22;75.07
46690;BME280;32423;45.398;10.874;2022-08-19T06:15:42;100167.72;;;23.28;74.58
46690;BME280;32423;45.398;10.874;2022-08-19T06:18:28;100151.78;;;23.36;73.59
46690;BME280;32423;45.398;10.874;2022-08-19T06:21:13;100130.00;;;23.34;72.97
46690;BME280;32423;45.398;10.874;2022-08-19T06:23:59;100130.72;;;23.38;73.14
46690;BME280;32423;45.398;10.874;2022-08-19T06:26:46;100117.25;;;23.37;72.95
46690;BME280;32423;45.398;10.874;2022-08-19T06:29:31;100114.88;;;23.39;72.80
46690;BME280;32423;45.398;10.874;2022-08-19T06:32:17;100113.25;;;23.45;73.14
46690;BME280;32423;45.398;10.874;2022-08-19T06:35:03;100124.28;;;23.49;72.90
46690;BME280;32423;45.398;10.874;2022-08-19T06:37:48;100130.69;;;23.42;72.87
46690;BME280;32423;45.398;10.874;2022-08-19T06:40:33;100156.91;;;23.37;72.68
46690;BME280;32423;45.398;10.874;2022-08-19T06:43:19;100175.63;;;23.30;73.38
46690;BME280;32423;45.398;10.874;2022-08-19T06:46:09;100185.53;;;23.31;73.72
46690;BME280;32423;45.398;10.874;2022-08-19T06:48:56;100191.09;;;23.31;73.33
46690;BME280;32423;45.398;10.874;2022-08-19T06:51:43;100187.81;;;23.39;72.44
46690;BME280;32423;45.398;10.874;2022-08-19T06:54:28;100194.22;;;23.33;72.29
46690;BME280;32423;45.398;10.874;2022-08-19T06:57:14;100196.25;;;23.29;73.20
46690;BME280;32423;45.398;10.874;2022-08-19T06:59:59;100200.22;;;23.28;73.68
46690;BME280;32423;45.398;10.874;2022-08-19T07:02:44;100206.97;;;23.27;73.91
46690;BME280;32423;45.398;10.874;2022-08-19T07:05:29;100207.31;;;23.32;73.75
46690;BME280;32423;45.398;10.874;2022-08-19T07:08:13;100207.69;;;23.34;73.79
46690;BME280;32423;45.398;10.874;2022-08-19T07:10:58;100213.94;;;23.42;72.49
46690;BME280;32423;45.398;10.874;2022-08-19T07:13:44;100213.16;;;23.45;72.52
46690;BME280;32423;45.398;10.874;2022-08-19T07:16:30;100214.38;;;23.37;72.57
46690;BME280;32423;45.398;10.874;2022-08-19T07:19:16;100228.25;;;23.37;72.88
46690;BME280;32423;45.398;10.874;2022-08-19T07:22:03;100218.75;;;23.38;72.82
46690;BME280;32423;45.398;10.874;2022-08-19T07:24:49;100215.00;;;23.18;73.29
46690;BME280;32423;45.398;10.874;2022-08-19T07:27:34;100214.25;;;23.14;73.35
46690;BME280;32423;45.398;10.874;2022-08-19T07:30:19;100210.06;;;22.98;73.87
46690;BME280;32423;45.398;10.874;2022-08-19T07:33:04;100224.13;;;23.18;73.84
46690;BME280;32423;45.398;10.874;2022-08-19T07:35:49;100232.00;;;23.23;72.20
46690;BME280;32423;45.398;10.874;2022-08-19T07:38:34;100235.59;;;23.20;71.50
46690;BME280;32423;45.398;10.874;2022-08-19T07:41:23;100234.16;;;22.57;79.43
46690;BME280;32423;45.398;10.874;2022-08-19T07:44:09;100232.34;;;22.40;78.96
46690;BME280;32423;45.398;10.874;2022-08-19T07:46:56;100237.16;;;22.25;78.47
46690;BME280;32423;45.398;10.874;2022-08-19T07:49:41;100243.84;;;22.35;76.31
46690;BME280;32423;45.398;10.874;2022-08-19T07:52:26;100242.19;;;22.44;75.15
46690;BME280;32423;45.398;10.874;2022-08-19T07:55:17;100242.03;;;22.62;74.17
46690;BME280;32423;45.398;10.874;2022-08-19T07:58:02;100242.00;;;22.73;73.18
46690;BME280;32423;45.398;10.874;2022-08-19T08:00:50;100242.38;;;22.71;72.70
46690;BME280;32423;45.398;10.874;2022-08-19T08:03:37;100241.06;;;22.86;73.16
46690;BME280;32423;45.398;10.874;2022-08-19T08:06:41;100242.94;;;23.00;73.28
46690;BME280;32423;45.398;10.874;2022-08-19T08:09:45;100243.94;;;23.17;72.87
46690;BME280;32423;45.398;10.874;2022-08-19T08:12:37;100242.59;;;23.32;71.69
46690;BME280;32423;45.398;10.874;2022-08-19T08:15:25;100240.59;;;23.36;71.69
46690;BME280;32423;45.398;10.874;2022-08-19T08:18:11;100230.69;;;23.35;71.78
46690;BME280;32423;45.398;10.874;2022-08-19T08:20:57;100244.28;;;23.26;72.33
46690;BME280;32423;45.398;10.874;2022-08-19T08:23:42;100235.16;;;23.22;71.83
46690;BME280;32423;45.398;10.874;2022-08-19T08:26:27;100235.16;;;23.22;71.53
46690;BME280;32423;45.398;10.874;2022-08-19T08:29:13;100223.72;;;23.20;71.89
46690;BME280;32423;45.398;10.874;2022-08-19T08:31:57;100220.22;;;23.12;71.11
46690;BME280;32423;45.398;10.874;2022-08-19T08:34:48;100208.03;;;23.02;73.45
46690;BME280;32423;45.398;10.874;2022-08-19T08:37:33;100213.59;;;23.02;72.85
46690;BME280;32423;45.398;10.874;2022-08-19T08:43:35;100243.47;;;23.25;71.04
46690;BME280;32423;45.398;10.874;2022-08-19T08:46:58;100254.81;;;23.38;70.31
46690;BME280;32423;45.398;10.874;2022-08-19T08:49:55;100256.91;;;23.27;70.85
46690;BME280;32423;45.398;10.874;2022-08-19T08:52:46;100249.88;;;23.19;71.61
46690;BME280;32423;45.398;10.874;2022-08-19T08:55:31;100254.59;;;23.22;70.84
46690;BME280;32423;45.398;10.874;2022-08-19T08:58:28;100271.63;;;23.24;71.52
46690;BME280;32423;45.398;10.874;2022-08-19T09:01:15;100285.16;;;23.18;70.96
46690;BME280;32423;45.398;10.874;2022-08-19T09:04:03;100291.41;;;22.81;72.64
46690;BME280;32423;45.398;10.874;2022-08-19T09:10:21;100297.84;;;22.68;73.39
46690;BME280;32423;45.398;10.874;2022-08-19T09:16:19;100307.84;;;22.51;73.64
46690;BME280;32423;45.398;10.874;2022-08-19T09:19:06;100316.47;;;21.98;76.66
46690;BME280;32423;45.398;10.874;2022-08-19T09:21:51;100309.06;;;21.49;79.74
46690;BME280;32423;45.398;10.874;2022-08-19T09:24:36;100307.69;;;22.10;77.03
46690;BME280;32423;45.398;10.874;2022-08-19T09:27:22;100305.00;;;22.61;74.97
46690;BME280;32423;45.398;10.874;2022-08-19T09:30:14;100294.19;;;22.85;74.21
46690;BME280;32423;45.398;10.874;2022-08-19T09:32:59;100293.63;;;23.04;73.17
46690;BME280;32423;45.398;10.874;2022-08-19T09:35:45;100289.88;;;23.21;72.28
46690;BME280;32423;45.398;10.874;2022-08-19T09:38:30;100276.56;;;23.43;70.94
46690;BME280;32423;45.398;10.874;2022-08-19T09:41:20;100272.19;;;23.49;70.12
46690;BME280;32423;45.398;10.874;2022-08-19T09:44:05;100256.69;;;23.52;70.00
46690;BME280;32423;45.398;10.874;2022-08-19T09:46:51;100247.13;;;23.56;69.12
46690;BME280;32423;45.398;10.874;2022-08-19T09:49:35;100242.03;;;23.51;69.40
46690;BME280;32423;45.398;10.874;2022-08-19T09:52:21;100223.75;;;23.54;69.29
46690;BME280;32423;45.398;10.874;2022-08-19T09:55:09;100224.00;;;23.66;68.94
46690;BME280;32423;45.398;10.874;2022-08-19T09:57:54;100215.38;;;23.57;69.38
46690;BME280;32423;45.398;10.874;2022-08-19T10:00:39;100206.63;;;23.59;69.17
46690;BME280;32423;45.398;10.874;2022-08-19T10:03:25;100199.47;;;23.61;69.34
46690;BME280;32423;45.398;10.874;2022-08-19T10:06:10;100196.25;;;23.66;69.30
46690;BME280;32423;45.398;10.874;2022-08-19T10:08:55;100179.47;;;23.73;68.61
46690;BME280;32423;45.398;10.874;2022-08-19T10:11:41;100177.16;;;23.68;68.34
46690;BME280;32423;45.398;10.874;2022-08-19T10:14:26;100169.06;;;23.81;67.94
46690;BME280;32423;45.398;10.874;2022-08-19T10:17:11;100171.94;;;24.01;67.42
46690;BME280;32423;45.398;10.874;2022-08-19T10:19:58;100174.25;;;24.06;67.38
46690;BME280;32423;45.398;10.874;2022-08-19T10:22:43;100173.72;;;24.14;68.14
46690;BME280;32423;45.398;10.874;2022-08-19T10:25:28;100165.34;;;24.18;67.75
46690;BME280;32423;45.398;10.874;2022-08-19T10:28:13;100168.94;;;24.15;66.63
46690;BME280;32423;45.398;10.874;2022-08-19T10:30:58;100169.91;;;24.05;68.03
46690;BME280;32423;45.398;10.874;2022-08-19T10:33:43;100173.69;;;23.91;68.90
46690;BME280;32423;45.398;10.874;2022-08-19T10:36:35;100174.97;;;24.10;67.24
46690;BME280;32423;45.398;10.874;2022-08-19T10:39:21;100169.50;;;24.03;67.78
46690;BME280;32423;45.398;10.874;2022-08-19T10:42:06;100176.56;;;24.11;67.66
46690;BME280;32423;45.398;10.874;2022-08-19T10:44:51;100182.81;;;24.18;67.03
46690;BME280;32423;45.398;10.874;2022-08-19T10:47:36;100189.41;;;24.28;66.79
46690;BME280;32423;45.398;10.874;2022-08-19T10:50:21;100184.69;;;24.25;66.59
46690;BME280;32423;45.398;10.874;2022-08-19T10:53:25;100190.63;;;24.27;66.67
46690;BME280;32423;45.398;10.874;2022-08-19T10:56:10;100178.66;;;24.30;66.14
46690;BME280;32423;45.398;10.874;2022-08-19T10:59:15;100179.28;;;24.41;66.03
46690;BME280;32423;45.398;10.874;2022-08-19T11:02:01;100178.38;;;24.48;66.45
46690;BME280;32423;45.398;10.874;2022-08-19T11:04:46;100175.41;;;24.35;66.20
46690;BME280;32423;45.398;10.874;2022-08-19T11:07:32;100180.53;;;24.37;67.11
46690;BME280;32423;45.398;10.874;2022-08-19T11:10:17;100168.25;;;24.34;67.11
46690;BME280;32423;45.398;10.874;2022-08-19T11:13:03;100165.38;;;24.41;67.10
46690;BME280;32423;45.398;10.874;2022-08-19T11:15:55;100173.56;;;24.25;68.25
46690;BME280;32423;45.398;10.874;2022-08-19T11:18:43;100162.44;;;23.98;69.19
46690;BME280;32423;45.398;10.874;2022-08-19T11:21:31;100166.22;;;24.11;68.86
46690;BME280;32423;45.398;10.874;2022-08-19T11:24:19;100167.97;;;24.02;68.71
46690;BME280;32423;45.398;10.874;2022-08-19T11:27:07;100167.34;;;23.91;69.05
46690;BME280;32423;45.398;10.874;2022-08-19T11:29:53;100188.47;;;24.11;68.92
46690;BME280;32423;45.398;10.874;2022-08-19T11:32:39;100190.16;;;24.55;66.65
46690;BME280;32423;45.398;10.874;2022-08-19T11:35:24;100197.13;;;25.10;64.78
46690;BME280;32423;45.398;10.874;2022-08-19T11:38:09;100199.50;;;26.07;61.42
46690;BME280;32423;45.398;10.874;2022-08-19T11:40:58;100214.09;;;25.78;63.05
46690;BME280;32423;45.398;10.874;2022-08-19T11:43:44;100214.78;;;25.82;62.25
46690;BME280;32423;45.398;10.874;2022-08-19T11:46:29;100219.75;;;25.75;63.00
46690;BME280;32423;45.398;10.874;2022-08-19T11:49:17;100218.38;;;25.83;62.74
46690;BME280;32423;45.398;10.874;2022-08-19T11:52:06;100216.28;;;25.87;62.94
46690;BME280;32423;45.398;10.874;2022-08-19T11:54:51;100204.34;;;26.87;60.12
46690;BME280;32423;45.398;10.874;2022-08-19T11:57:36;100204.53;;;26.96;59.09
46690;BME280;32423;45.398;10.874;2022-08-19T12:00:21;100211.09;;;26.90;59.24
46690;BME280;32423;45.398;10.874;2022-08-19T12:03:06;100210.13;;;26.96;58.88
46690;BME280;32423;45.398;10.874;2022-08-19T12:05:51;100209.53;;;28.00;55.55
46690;BME280;32423;45.398;10.874;2022-08-19T12:08:36;100215.53;;;29.44;50.66
46690;BME280;32423;45.398;10.874;2022-08-19T12:11:22;100218.81;;;30.66;46.52
46690;BME280;32423;45.398;10.874;2022-08-19T12:14:10;100211.91;;;31.94;43.61
46690;BME280;32423;45.398;10.874;2022-08-19T12:16:56;100218.47;;;32.57;42.68
46690;BME280;32423;45.398;10.874;2022-08-19T12:19:41;100217.03;;;31.96;43.65
46690;BME280;32423;45.398;10.874;2022-08-19T12:22:28;100208.66;;;30.19;47.47
46690;BME280;32423;45.398;10.874;2022-08-19T12:25:14;100214.44;;;29.07;50.18
46690;BME280;32423;45.398;10.874;2022-08-19T12:28:02;100195.22;;;27.98;52.94
46690;BME280;32423;45.398;10.874;2022-08-19T12:30:48;100200.19;;;26.95;54.47
46690;BME280;32423;45.398;10.874;2022-08-19T12:33:35;100189.34;;;28.69;50.28
46690;BME280;32423;45.398;10.874;2022-08-19T12:36:20;100201.31;;;29.82;47.39
46690;BME280;32423;45.398;10.874;2022-08-19T12:39:06;100189.09;;;28.16;51.59
46690;BME280;32423;45.398;10.874;2022-08-19T12:41:53;100185.56;;;27.04;53.67
46690;BME280;32423;45.398;10.874;2022-08-19T12:44:39;100171.00;;;26.51;55.49
46690;BME280;32423;45.398;10.874;2022-08-19T12:47:24;100177.13;;;26.46;56.66
46690;BME280;32423;45.398;10.874;2022-08-19T12:50:10;100176.66;;;26.48;56.63
46690;BME280;32423;45.398;10.874;2022-08-19T12:52:56;100178.72;;;26.92;54.85
46690;BME280;32423;45.398;10.874;2022-08-19T12:55:42;100176.28;;;27.52;53.32
46690;BME280;32423;45.398;10.874;2022-08-19T12:58:29;100181.16;;;27.48;52.95
46690;BME280;32423;45.398;10.874;2022-08-19T13:01:16;100178.75;;;27.75;52.94
46690;BME280;32423;45.398;10.874;2022-08-19T13:04:02;100180.53;;;27.56;53.44
46690;BME280;32423;45.398;10.874;2022-08-19T13:06:47;100175.63;;;27.32;54.79
46690;BME280;32423;45.398;10.874;2022-08-19T13:09:33;100174.16;;;26.82;56.37
46690;BME280;32423;45.398;10.874;2022-08-19T13:12:18;100177.53;;;26.45;57.12
46690;BME280;32423;45.398;10.874;2022-08-19T13:15:06;100180.66;;;26.47;57.42
46690;BME280;32423;45.398;10.874;2022-08-19T13:17:52;100173.59;;;26.42;57.45
46690;BME280;32423;45.398;10.874;2022-08-19T13:20:38;100167.75;;;26.53;57.36
46690;BME280;32423;45.398;10.874;2022-08-19T13:23:25;100169.50;;;26.63;57.08
46690;BME280;32423;45.398;10.874;2022-08-19T13:26:10;100175.28;;;26.56;57.21
46690;BME280;32423;45.398;10.874;2022-08-19T13:28:56;100167.16;;;26.45;57.13
46690;BME280;32423;45.398;10.874;2022-08-19T13:31:59;100163.22;;;26.59;56.69
46690;BME280;32423;45.398;10.874;2022-08-19T13:35:03;100160.28;;;26.50;57.24
46690;BME280;32423;45.398;10.874;2022-08-19T13:37:48;100162.81;;;26.44;57.45
46690;BME280;32423;45.398;10.874;2022-08-19T13:40:33;100164.38;;;26.29;58.79
46690;BME280;32423;45.398;10.874;2022-08-19T13:43:20;100163.94;;;26.47;57.05
46690;BME280;32423;45.398;10.874;2022-08-19T13:46:11;100170.72;;;26.62;56.89
46690;BME280;32423;45.398;10.874;2022-08-19T13:48:58;100177.06;;;26.62;56.87
46690;BME280;32423;45.398;10.874;2022-08-19T13:51:42;100177.19;;;26.26;58.57
46690;BME280;32423;45.398;10.874;2022-08-19T13:54:27;100179.28;;;26.38;58.61
46690;BME280;32423;45.398;10.874;2022-08-19T13:57:13;100175.75;;;26.18;59.33
46690;BME280;32423;45.398;10.874;2022-08-19T13:59:58;100168.09;;;25.31;61.56
46690;BME280;32423;45.398;10.874;2022-08-19T14:02:44;100165.47;;;25.04;62.81
46690;BME280;32423;45.398;10.874;2022-08-19T14:05:30;100162.63;;;24.84;63.97
46690;BME280;32423;45.398;10.874;2022-08-19T14:08:15;100160.41;;;24.76;64.55
46690;BME280;32423;45.398;10.874;2022-08-19T14:11:00;100164.88;;;24.69;64.15
46690;BME280;32423;45.398;10.874;2022-08-19T14:13:45;100156.59;;;24.66;64.68
46690;BME280;32423;45.398;10.874;2022-08-19T14:16:30;100154.19;;;24.68;64.63
46690;BME280;32423;45.398;10.874;2022-08-19T14:19:16;100152.72;;;24.60;65.11
46690;BME280;32423;45.398;10.874;2022-08-19T14:22:00;100150.81;;;24.57;64.92
46690;BME280;32423;45.398;10.874;2022-08-19T14:24:45;100148.06;;;24.53;65.55
46690;BME280;32423;45.398;10.874;2022-08-19T14:27:36;100148.28;;;24.43;66.22
46690;BME280;32423;45.398;10.874;2022-08-19T14:30:24;100141.94;;;24.42;66.49